sensor_id;sensor_type;location;lat;lon;timestamp;pressure;altitude;pressure_sealevel;temperature;humidity
19526;BME280;9907;42.676;26.348;2023-11-19T00:37:40;98276.72;;;3.84;100.00
19526;BME280;9907;42.676;26.348;2023-11-19T00:47:49;98280.53;;;3.80;100.00
19526;BME280;9907;42.676;26.348;2023-11-19T00:54:14;98269.81;;;4.05;100.00
19526;BME280;9907;42.676;26.348;2023-11-19T00:56:48;98255.06;;;4.03;100.00
19526;BME280;9907;42.676;26.348;2023-11-19T00:59:24;98256.75;;;4.15;100.00
19526;BME280;9907;42.676;26.348;2023-11-19T01:05:48;98279.25;;;4.20;100.00
19526;BME280;9907;42.676;26.348;2023-11-19T01:08:36;98286.84;;;4.25;100.00
19526;BME280;9907;42.676;26.348;2023-11-19T01:35:02;98324.53;;;4.16;100.00
19526;BME280;9907;42.676;26.348;2023-11-19T01:42:17;98339.78;;;4.12;100.00
19526;BME280;9907;42.676;26.348;2023-11-19T01:45:02;98331.75;;;4.14;100.00
19526;BME280;9907;42.676;26.348;2023-11-19T01:47:38;98338.69;;;4.15;100.00
19526;BME280;9907;42.676;26.348;2023-11-19T01:50:16;98350.19;;;4.03;100.00
19526;BME280;9907;42.676;26.348;2023-11-19T01:52:54;98339.81;;;4.00;100.00
19526;BME280;9907;42.676;26.348;2023-11-19T01:55:27;98342.75;;;4.08;100.00
19526;BME280;9907;42.676;26.348;2023-11-19T01:58:09;98346.69;;;4.02;100.00
19526;BME280;9907;42.676;26.348;2023-11-19T02:00:40;98348.50;;;4.02;100.00
19526;BME280;9907;42.676;26.348;2023-11-19T02:03:31;98345.38;;;4.08;100.00
19526;BME280;9907;42.676;26.348;2023-11-19T02:09:28;98339.88;;;4.11;100.00
19526;BME280;9907;42.676;26.348;2023-11-19T02:12:00;98356.19;;;4.05;100.00
19526;BME280;9907;42.676;26.348;2023-11-19T02:20:47;98370.81;;;3.98;100.00
19526;BME280;9907;42.676;26.348;2023-11-19T02:23:38;98359.50;;;3.96;100.00
19526;BME280;9907;42.676;26.348;2023-11-19T02:26:52;98359.97;;;3.89;100.00
19526;BME280;9907;42.676;26.348;2023-11-19T02:29:22;98362.94;;;3.85;100.00
19526;BME280;9907;42.676;26.348;2023-11-19T02:32:10;98349.09;;;3.81;100.00
19526;BME280;9907;42.676;26.348;2023-11-19T02:34:46;98362.72;;;3.88;100.00
19526;BME280;9907;42.676;26.348;2023-11-19T02:48:12;98377.78;;;4.22;100.00
19526;BME280;9907;42.676;26.348;2023-11-19T02:51:38;98376.78;;;4.12;100.00
19526;BME280;9907;42.676;26.348;2023-11-19T02:54:44;98363.44;;;4.14;100.00
19526;BME280;9907;42.676;26.348;2023-11-19T02:57:43;98385.75;;;4.33;100.00
19526;BME280;9907;42.676;26.348;2023-11-19T03:00:30;98371.94;;;4.41;100.00
19526;BME280;9907;42.676;26.348;2023-11-19T03:03:10;98373.31;;;4.47;100.00
19526;BME280;9907;42.676;26.348;2023-11-19T03:06:25;98374.56;;;4.30;100.00
19526;BME280;9907;42.676;26.348;2023-11-19T03:08:58;98370.34;;;4.27;100.00
19526;BME280;9907;42.676;26.348;2023-11-19T03:11:35;98371.34;;;4.37;100.00
19526;BME280;9907;42.676;26.348;2023-11-19T03:14:14;98368.66;;;4.61;100.00
19526;BME280;9907;42.676;26.348;2023-11-19T03:19:53;98348.66;;;4.46;100.00
19526;BME280;9907;42.676;26.348;2023-11-19T03:22:24;98361.97;;;4.45;100.00
19526;BME280;9907;42.676;26.348;2023-11-19T03:24:57;98357.41;;;4.35;100.00
19526;BME280;9907;42.676;26.348;2023-11-19T03:31:17;98340.25;;;4.52;100.00
19526;BME280;9907;42.676;26.348;2023-11-19T03:34:26;98370.09;;;4.54;99.30
19526;BME280;9907;42.676;26.348;2023-11-19T03:37:40;98379.84;;;4.65;100.00
19526;BME280;9907;42.676;26.348;2023-11-19T03:43:40;98387.28;;;4.60;98.85
19526;BME280;9907;42.676;26.348;2023-11-19T03:56:44;98404.50;;;4.65;96.15
19526;BME280;9907;42.676;26.348;2023-11-19T03:59:55;98395.47;;;4.68;96.86
19526;BME280;9907;42.676;26.348;2023-11-19T04:03:00;98417.50;;;4.68;96.20
19526;BME280;9907;42.676;26.348;2023-11-19T04:05:36;98412.88;;;4.59;100.00
19526;BME280;9907;42.676;26.348;2023-11-19T04:08:11;98427.69;;;4.62;98.04
19526;BME280;9907;42.676;26.348;2023-11-19T04:10:47;98432.38;;;4.69;96.67
19526;BME280;9907;42.676;26.348;2023-11-19T04:13:19;98449.53;;;4.76;93.12
19526;BME280;9907;42.676;26.348;2023-11-19T04:15:55;98449.47;;;4.65;94.19
19526;BME280;9907;42.676;26.348;2023-11-19T04:18:30;98455.16;;;4.72;93.90
19526;BME280;9907;42.676;26.348;2023-11-19T04:21:07;98441.34;;;4.79;94.01
19526;BME280;9907;42.676;26.348;2023-11-19T04:24:12;98470.66;;;4.65;94.40
19526;BME280;9907;42.676;26.348;2023-11-19T04:26:47;98466.31;;;4.64;98.34
19526;BME280;9907;42.676;26.348;2023-11-19T04:29:22;98481.50;;;4.84;96.59
19526;BME280;9907;42.676;26.348;2023-11-19T04:31:51;98465.53;;;4.86;92.95
19526;BME280;9907;42.676;26.348;2023-11-19T04:34:33;98492.28;;;4.70;91.56
19526;BME280;9907;42.676;26.348;2023-11-19T04:37:11;98497.84;;;4.78;90.86
19526;BME280;9907;42.676;26.348;2023-11-19T04:39:45;98506.19;;;4.85;90.14
19526;BME280;9907;42.676;26.348;2023-11-19T04:42:16;98513.34;;;4.72;88.25
19526;BME280;9907;42.676;26.348;2023-11-19T04:44:52;98510.56;;;4.73;89.29
19526;BME280;9907;42.676;26.348;2023-11-19T04:47:46;98521.72;;;4.89;90.38
19526;BME280;9907;42.676;26.348;2023-11-19T04:50:35;98528.44;;;4.82;89.04
19526;BME280;9907;42.676;26.348;2023-11-19T04:53:05;98528.72;;;4.90;89.35
19526;BME280;9907;42.676;26.348;2023-11-19T04:55:37;98533.25;;;4.88;91.70
19526;BME280;9907;42.676;26.348;2023-11-19T05:05:37;98548.75;;;4.82;92.67
19526;BME280;9907;42.676;26.348;2023-11-19T05:08:55;98538.91;;;4.84;97.72
19526;BME280;9907;42.676;26.348;2023-11-19T05:12:06;98557.31;;;4.85;95.48
19526;BME280;9907;42.676;26.348;2023-11-19T05:14:54;98557.47;;;4.95;92.04
19526;BME280;9907;42.676;26.348;2023-11-19T05:17:34;98559.91;;;4.74;94.00
19526;BME280;9907;42.676;26.348;2023-11-19T05:20:10;98559.00;;;4.86;92.87
19526;BME280;9907;42.676;26.348;2023-11-19T05:22:51;98564.06;;;4.89;88.53
19526;BME280;9907;42.676;26.348;2023-11-19T05:25:24;98570.44;;;4.87;88.19
19526;BME280;9907;42.676;26.348;2023-11-19T05:28:11;98577.44;;;4.99;88.48
19526;BME280;9907;42.676;26.348;2023-11-19T05:30:45;98577.19;;;4.91;90.70
19526;BME280;9907;42.676;26.348;2023-11-19T05:33:21;98572.72;;;4.91;87.53
19526;BME280;9907;42.676;26.348;2023-11-19T05:35:50;98577.00;;;5.05;85.59
19526;BME280;9907;42.676;26.348;2023-11-19T05:38:24;98582.88;;;4.98;87.50
19526;BME280;9907;42.676;26.348;2023-11-19T05:41:19;98574.19;;;4.96;89.12
19526;BME280;9907;42.676;26.348;2023-11-19T05:44:39;98574.94;;;4.98;84.62
19526;BME280;9907;42.676;26.348;2023-11-19T05:50:26;98579.03;;;5.02;84.24
19526;BME280;9907;42.676;26.348;2023-11-19T05:53:14;98582.66;;;5.01;86.94
19526;BME280;9907;42.676;26.348;2023-11-19T05:55:42;98599.66;;;4.85;83.28
19526;BME280;9907;42.676;26.348;2023-11-19T05:58:28;98590.25;;;4.81;84.12
19526;BME280;9907;42.676;26.348;2023-11-19T06:08:36;98603.53;;;4.93;82.50
19526;BME280;9907;42.676;26.348;2023-11-19T06:40:16;98605.00;;;4.97;85.76
